Lawson Army Air Field (Fort Benning)
KLSF : now visible

Airfield :











YOU CAN JOIN US ON...

 
LOGIN :

Register | Disclaimer

   EN    FR    IT 

 









Legend :    VFR   Marginal VFR   IFR   Intensive IFR   Very Intensive IFR
Visi :
Ceiling :
>= 8 km
>= 3000ft
5 to 8 km
1000 to 3000 ft
1500m to 5 km
500 to 1000 ft
800 to 1500m
200 to 500 ft
< 800m
< 200 ft
Symbols :   Thunderstorms  Fog  Heavy snow  Heavy precipitations  Wind > 20 kt






- Airport Elevation : 232 ft


KLSF - Lawson Army Air Field (Fort Benning)

CURRENT METAR :
  • 260156Z AUTO 09004KT 10SM OVC130 24/19 A2999 RMK AO2 SLP159 T02420192 $

EXPIRED METARs :
  • 260056Z AUTO 10008KT 10SM SCT110 BKN150 25/19 A2997 RMK AO2 SLP152 T02520193 $
  • 252356Z AUTO 07009G15KT 10SM BKN120 27/21 A2995 RMK AO2 SLP145 60000 T02700208 10314 20269 53005 $

TAF TAF KLSF
Valid from the 25 at 17:00 until the 26 at 23:00 UTC


251700Z 2517/2623 11012G18KT 9999 BKN030 QNH3001INS
BECMG 2519/2520 11010G15KT 6000 -SHRA SCT035 QNH2995INS
TEMPO 2520/2523 11020G30KT 4800 -TSRA BKN035CB BKN055 OVC080
BECMG 2601/2602 VRB06KT 9999 NSW SKC QNH2998INS
BECMG 2608/2609 08006KT 3200 BR BKN008 QNH2996INS
BECMG 2611/2612 07006KT 9999 NSW OVC016 QNH2998INS
BECMG 2614/2615 08010G15KT 9999 OVC016 QNH2999INS
BECMG 2620/2621 09020G25KT 6000 -TSRA BKN035CB 510013 QNH2993INS TX29/2518Z TN20/2605Z
KZTL FIR / North America



MET'MAP, your aeronautical weather chart ! - Copyright ORBIFLY December 2007 - Disclaimer

ORBIFLY MET'MAP TEAM :

Programming & Development : Alexandra Zaïnal
Concept & original design : Baudouin d'Aumeries
Assistance for programming : Marc-Olivier Méhu
Technical & hardware support : Manuel Goepfert

Contact : metmap@orbifly.com




SOURCES & CREDITS :

   NOAA       Earth
Advisory